Hartford, Connecticut
Traffic Map
Current Weather Conditions
Hartford, Connecticut
Scattered Clouds
Scattered Clouds
28°
Feels Like: 28°
Wind Chill: 28° Ceiling: Unl
Heat Index: 28° Visibility: 10mi
Dew Point: 15° Wind: 12mph
Humidity: 45% Direction: 260° (W)
Pressure: 29.91in Gusts: 25mph
Raw Report DataKHFD 292053Z 26010G22KT 10SM FEW060 SCT075 28/15 A2991 RMK AO2 SLP127 T02780150 53012
Traffic Incident Summary
Active as of:
Severity:
Category:
InformationThere was an issue retrieving the traffic information for this location. Please try a different location or try again shortly.
Advertisements
Track Severe Weather on mobile